F/V J. Louis Vincent — FQBL — position and weather

sailwx.info

Track history (hours):
 
Tides and Currents Weather Stations Pressure Air Temp Water Temp Dewpoint Dewpoint Depression Visibility Wind Speed Wind Dir Waves Ship Positions

F/V J. Louis Vincent

Last reported at 2017-Oct-31 15:04 UTC. Time now 2017-Dec-18 03:30 UTC.
Position N 43°08' E 004°25'.
Warning: this ship's position is 47 days out of date.

Length 29 m; draft 4.5 m.

Type: Tow > 200 m length. MMSI: 227146600.

Date/timePositionNaut miles runAvg speedWind from/ knotsBaromVisibWave heightAir tempDewpointWater temp
2017-Oct-31 15:04N 43°08' E 004°25'112.5
2017-Oct-31 15:00N 43°08' E 004°26'611.5
2017-Oct-31 14:30N 43°05' E 004°33'1 2.6
2017-Oct-31 14:01N 43°05' E 004°35'2 4.3
2017-Oct-31 13:30N 43°04' E 004°38'2 4.2
2017-Oct-31 13:00N 43°04' E 004°41'2 4.2
2017-Oct-31 12:31N 43°03' E 004°43'2 4.1
2017-Oct-31 12:00N 43°02' E 004°46'2 4.1
2017-Oct-31 11:31N 43°02' E 004°49'2 4.3
2017-Oct-31 11:00N 43°00' E 004°51'1 2.7
2017-Oct-31 10:30N 43°01' E 004°49'2 4.0
2017-Oct-31 10:01N 43°02' E 004°47'2 4.2
2017-Oct-31 09:30N 43°03' E 004°44'2 4.2
2017-Oct-31 09:01N 43°03' E 004°41'2 4.3
2017-Oct-31 08:30N 43°03' E 004°38'2 4.1
2017-Oct-31 08:01N 43°04' E 004°36'2 4.2
2017-Oct-31 07:31N 43°04' E 004°33'2 4.4
2017-Oct-31 06:59N 43°04' E 004°30'1 2.1
2017-Oct-31 06:25N 43°04' E 004°28'18 0.8
2017-Oct-30 07:47N 43°15' E 004°09'2 5.5
2017-Oct-30 07:27N 43°16' E 004°07'  
2017-Oct-26 06:09N 43°03' E 004°31'1 4.3
2017-Oct-26 05:59N 43°03' E 004°30'2 4.1
2017-Oct-26 05:28N 43°03' E 004°27'17 6.2
2017-Oct-26 02:45N 43°09' E 004°06'311.6
2017-Oct-26 02:30N 43°11' E 004°03'611.4
2017-Oct-26 01:57N 43°15' E 003°56'511.3
2017-Oct-26 01:30N 43°18' E 003°51'611.5
2017-Oct-26 00:58N 43°22' E 003°44'3 0.4
2017-Oct-25 17:47N 43°24' E 003°42'0 1.7
2017-Oct-25 17:30N 43°24' E 003°42'0 0.0
2017-Oct-25 17:01N 43°24' E 003°42'0 0.5
2017-Oct-25 16:31N 43°24' E 003°42'4 8.1
2017-Oct-25 16:01N 43°22' E 003°47'612.2
2017-Oct-25 15:31N 43°18' E 003°53'612.3
2017-Oct-25 15:01N 43°14' E 003°59'612.0
2017-Oct-25 14:30N 43°10' E 004°06'2 3.2
2017-Oct-25 13:45N 43°09' E 004°09'6 4.3
2017-Oct-25 12:15N 43°06' E 004°17'1 4.3
2017-Oct-25 12:01N 43°05' E 004°18'4 5.0
2017-Oct-25 11:17N 43°04' E 004°22'1 2.3
2017-Oct-25 11:01N 43°03' E 004°23'2 4.1
2017-Oct-25 10:30N 43°02' E 004°25'2 4.2
2017-Oct-25 10:01N 42°60' E 004°26'2 4.1
2017-Oct-25 09:31N 42°58' E 004°25'2 4.1
2017-Oct-25 09:01N 42°56' E 004°24'2 3.3
2017-Oct-25 08:31N 42°54' E 004°24'1 2.5
2017-Oct-25 08:01N 42°53' E 004°24'1 2.6
2017-Oct-25 07:29N 42°54' E 004°22'1 2.9
2017-Oct-25 07:01N 42°55' E 004°23'2 4.1
2017-Oct-25 06:31N 42°57' E 004°24'2 4.1
2017-Oct-25 06:00N 42°59' E 004°24'2 4.2
2017-Oct-25 05:30N 43°01' E 004°23'3 4.0
2017-Oct-25 04:41N 43°03' E 004°19'1 4.0
2017-Oct-25 04:31N 43°03' E 004°18'8 0.4
2017-Oct-24 07:23N 43°09' E 004°10'2 4.0
2017-Oct-24 06:58N 43°11' E 004°11'5 0.3
2017-Oct-23 14:43N 43°16' E 004°10'411.2
2017-Oct-23 14:20N 43°14' E 004°15'3 3.2
2017-Oct-23 13:17N 43°13' E 004°20'1 4.1
2017-Oct-23 13:00N 43°12' E 004°21'2 4.1
2017-Oct-23 12:27N 43°11' E 004°24'2 4.0
2017-Oct-23 11:59N 43°11' E 004°26'2 4.0
2017-Oct-23 11:30N 43°10' E 004°29'2 3.8
2017-Oct-23 11:00N 43°11' E 004°32'2 3.7
2017-Oct-23 10:30N 43°11' E 004°34'2 4.2
2017-Oct-23 10:00N 43°11' E 004°37'2 4.2
2017-Oct-23 09:30N 43°12' E 004°39'2 4.3
2017-Oct-23 09:00N 43°14' E 004°42'2 4.2
2017-Oct-23 08:30N 43°15' E 004°44'2 3.0
2017-Oct-23 08:00N 43°15' E 004°46'1 1.3
2017-Oct-23 07:30N 43°15' E 004°47'2 4.1
2017-Oct-23 07:00N 43°16' E 004°50'2 4.1
2017-Oct-23 06:30N 43°16' E 004°53'2 4.1
2017-Oct-23 06:01N 43°17' E 004°55'2 4.1
2017-Oct-23 05:31N 43°17' E 004°58'2 4.1
2017-Oct-23 05:00N 43°17' E 005°01'2 4.0
2017-Oct-23 04:27N 43°17' E 005°04'  
Track history (hours):
 
Tides and Currents Weather Stations Pressure Air Temp Water Temp Dewpoint Dewpoint Depression Visibility Wind Speed Wind Dir Waves Ship Positions

F/V J. Louis Vincent

Last reported at 2017-Oct-31 15:04 UTC. Time now 2017-Dec-18 03:30 UTC.
Position N 43°08' E 004°25'.
Warning: this ship's position is 47 days out of date.

Length 29 m; draft 4.5 m.

Type: Tow > 200 m length. MMSI: 227146600.

Date/timePositionNaut miles runAvg speedWind from/ knotsBaromVisibWave heightAir tempDewpointWater temp
2017-Oct-31 15:04N 43°08' E 004°25'112.5
2017-Oct-31 15:00N 43°08' E 004°26'611.5
2017-Oct-31 14:30N 43°05' E 004°33'1 2.6
2017-Oct-31 14:01N 43°05' E 004°35'2 4.3
2017-Oct-31 13:30N 43°04' E 004°38'2 4.2
2017-Oct-31 13:00N 43°04' E 004°41'2 4.2
2017-Oct-31 12:31N 43°03' E 004°43'2 4.1
2017-Oct-31 12:00N 43°02' E 004°46'2 4.1
2017-Oct-31 11:31N 43°02' E 004°49'2 4.3
2017-Oct-31 11:00N 43°00' E 004°51'1 2.7
2017-Oct-31 10:30N 43°01' E 004°49'2 4.0
2017-Oct-31 10:01N 43°02' E 004°47'2 4.2
2017-Oct-31 09:30N 43°03' E 004°44'2 4.2
2017-Oct-31 09:01N 43°03' E 004°41'2 4.3
2017-Oct-31 08:30N 43°03' E 004°38'2 4.1
2017-Oct-31 08:01N 43°04' E 004°36'2 4.2
2017-Oct-31 07:31N 43°04' E 004°33'2 4.4
2017-Oct-31 06:59N 43°04' E 004°30'1 2.1
2017-Oct-31 06:25N 43°04' E 004°28'18 0.8
2017-Oct-30 07:47N 43°15' E 004°09'2 5.5
2017-Oct-30 07:27N 43°16' E 004°07'  
2017-Oct-26 06:09N 43°03' E 004°31'1 4.3
2017-Oct-26 05:59N 43°03' E 004°30'2 4.1
2017-Oct-26 05:28N 43°03' E 004°27'17 6.2
2017-Oct-26 02:45N 43°09' E 004°06'311.6
2017-Oct-26 02:30N 43°11' E 004°03'611.4
2017-Oct-26 01:57N 43°15' E 003°56'511.3
2017-Oct-26 01:30N 43°18' E 003°51'611.5
2017-Oct-26 00:58N 43°22' E 003°44'3 0.4
2017-Oct-25 17:47N 43°24' E 003°42'0 1.7
2017-Oct-25 17:30N 43°24' E 003°42'0 0.0
2017-Oct-25 17:01N 43°24' E 003°42'0 0.5
2017-Oct-25 16:31N 43°24' E 003°42'4 8.1
2017-Oct-25 16:01N 43°22' E 003°47'612.2
2017-Oct-25 15:31N 43°18' E 003°53'612.3
2017-Oct-25 15:01N 43°14' E 003°59'612.0
2017-Oct-25 14:30N 43°10' E 004°06'2 3.2
2017-Oct-25 13:45N 43°09' E 004°09'6 4.3
2017-Oct-25 12:15N 43°06' E 004°17'1 4.3
2017-Oct-25 12:01N 43°05' E 004°18'4 5.0
2017-Oct-25 11:17N 43°04' E 004°22'1 2.3
2017-Oct-25 11:01N 43°03' E 004°23'2 4.1
2017-Oct-25 10:30N 43°02' E 004°25'2 4.2
2017-Oct-25 10:01N 42°60' E 004°26'2 4.1
2017-Oct-25 09:31N 42°58' E 004°25'2 4.1
2017-Oct-25 09:01N 42°56' E 004°24'2 3.3
2017-Oct-25 08:31N 42°54' E 004°24'1 2.5
2017-Oct-25 08:01N 42°53' E 004°24'1 2.6
2017-Oct-25 07:29N 42°54' E 004°22'1 2.9
2017-Oct-25 07:01N 42°55' E 004°23'2 4.1
2017-Oct-25 06:31N 42°57' E 004°24'2 4.1
2017-Oct-25 06:00N 42°59' E 004°24'2 4.2
2017-Oct-25 05:30N 43°01' E 004°23'3 4.0
2017-Oct-25 04:41N 43°03' E 004°19'1 4.0
2017-Oct-25 04:31N 43°03' E 004°18'8 0.4
2017-Oct-24 07:23N 43°09' E 004°10'2 4.0
2017-Oct-24 06:58N 43°11' E 004°11'5 0.3
2017-Oct-23 14:43N 43°16' E 004°10'411.2
2017-Oct-23 14:20N 43°14' E 004°15'3 3.2
2017-Oct-23 13:17N 43°13' E 004°20'1 4.1
2017-Oct-23 13:00N 43°12' E 004°21'2 4.1
2017-Oct-23 12:27N 43°11' E 004°24'2 4.0
2017-Oct-23 11:59N 43°11' E 004°26'2 4.0
2017-Oct-23 11:30N 43°10' E 004°29'2 3.8
2017-Oct-23 11:00N 43°11' E 004°32'2 3.7
2017-Oct-23 10:30N 43°11' E 004°34'2 4.2
2017-Oct-23 10:00N 43°11' E 004°37'2 4.2
2017-Oct-23 09:30N 43°12' E 004°39'2 4.3
2017-Oct-23 09:00N 43°14' E 004°42'2 4.2
2017-Oct-23 08:30N 43°15' E 004°44'2 3.0
2017-Oct-23 08:00N 43°15' E 004°46'1 1.3
2017-Oct-23 07:30N 43°15' E 004°47'2 4.1
2017-Oct-23 07:00N 43°16' E 004°50'2 4.1
2017-Oct-23 06:30N 43°16' E 004°53'2 4.1
2017-Oct-23 06:01N 43°17' E 004°55'2 4.1
2017-Oct-23 05:31N 43°17' E 004°58'2 4.1
2017-Oct-23 05:00N 43°17' E 005°01'2 4.0
2017-Oct-23 04:27N 43°17' E 005°04'  

Dump ship's entire track history